createdAt,value
2018-10-09T00:00:06.890Z,15.40
2018-10-09T00:02:36.091Z,13.93
2018-10-09T00:05:05.743Z,13.63
2018-10-09T00:07:35.052Z,14.70
2018-10-09T00:10:04.371Z,15.00
2018-10-09T00:12:33.606Z,14.60
2018-10-09T00:15:02.926Z,15.60
2018-10-09T00:17:32.119Z,14.40
2018-10-09T00:20:01.348Z,15.23
2018-10-09T00:22:30.622Z,14.67
2018-10-09T00:24:59.819Z,15.40
2018-10-09T00:27:29.060Z,15.47
2018-10-09T00:30:00.287Z,14.13
2018-10-09T00:32:29.500Z,14.27
2018-10-09T00:34:58.931Z,15.93
2018-10-09T00:37:28.724Z,15.83
2018-10-09T00:39:57.919Z,14.70
2018-10-09T00:42:27.125Z,15.13
2018-10-09T00:44:56.387Z,15.73
2018-10-09T00:47:25.607Z,15.50
2018-10-09T00:49:55.343Z,13.83
2018-10-09T00:52:24.639Z,14.90
2018-10-09T00:54:53.916Z,13.97
2018-10-09T00:57:23.175Z,14.90
2018-10-09T00:59:52.737Z,14.63
2018-10-09T01:02:21.935Z,14.47
2018-10-09T01:04:51.166Z,15.77
2018-10-09T01:07:20.415Z,14.03
2018-10-09T01:09:49.629Z,13.33
2018-10-09T01:12:18.809Z,13.70
2018-10-09T01:14:48.036Z,14.27
2018-10-09T01:17:17.244Z,14.13
2018-10-09T01:19:46.477Z,13.50
2018-10-09T01:22:16.158Z,13.27
2018-10-09T01:24:45.399Z,14.47
2018-10-09T01:27:14.595Z,13.37
2018-10-09T01:29:44.107Z,13.60
2018-10-09T01:32:13.323Z,13.33
2018-10-09T01:34:42.558Z,13.67
2018-10-09T01:37:11.782Z,14.37
2018-10-09T01:39:41.054Z,14.30
2018-10-09T01:42:10.416Z,14.07
2018-10-09T01:44:40.168Z,15.33
2018-10-09T01:47:09.415Z,15.30
2018-10-09T01:49:38.655Z,17.50
2018-10-09T01:52:08.270Z,16.80
2018-10-09T01:54:37.508Z,17.20
2018-10-09T01:57:07.095Z,16.43
2018-10-09T01:59:36.347Z,17.00
2018-10-09T02:02:05.744Z,16.10
2018-10-09T02:04:34.959Z,15.67
2018-10-09T02:07:04.786Z,14.40
2018-10-09T02:09:34.061Z,16.30
2018-10-09T02:12:03.288Z,15.37
2018-10-09T02:14:32.523Z,17.30
2018-10-09T02:17:01.744Z,15.80
2018-10-09T02:19:30.971Z,16.40
2018-10-09T02:22:00.187Z,18.17
2018-10-09T02:24:29.400Z,17.07
2018-10-09T02:26:58.639Z,18.00
2018-10-09T02:29:28.193Z,17.03
2018-10-09T02:31:57.403Z,15.83
2018-10-09T02:34:26.626Z,14.77
2018-10-09T02:36:55.864Z,13.40
2018-10-09T02:39:25.061Z,13.90
2018-10-09T02:41:54.271Z,15.07
2018-10-09T02:44:23.493Z,14.70
2018-10-09T02:46:52.703Z,12.93
2018-10-09T02:49:21.927Z,13.40
2018-10-09T02:51:51.537Z,13.20
2018-10-09T02:54:21.212Z,10.53
2018-10-09T02:56:50.410Z,10.83
2018-10-09T02:59:19.658Z,12.33
2018-10-09T03:01:49.116Z,13.40
2018-10-09T03:04:18.313Z,10.83
2018-10-09T03:06:47.588Z,11.70
2018-10-09T03:09:16.806Z,11.20
2018-10-09T03:11:45.998Z,11.37
2018-10-09T03:14:15.299Z,12.73
2018-10-09T03:16:44.487Z,13.00
2018-10-09T03:19:13.699Z,12.60
2018-10-09T03:21:42.943Z,12.07
2018-10-09T03:24:12.155Z,12.00
2018-10-09T03:26:41.443Z,12.03
2018-10-09T03:29:10.671Z,11.00
2018-10-09T03:31:39.941Z,11.17
2018-10-09T03:34:09.136Z,11.77
2018-10-09T03:36:38.703Z,11.27
2018-10-09T03:39:08.867Z,12.30
2018-10-09T03:41:38.213Z,11.83
2018-10-09T03:44:07.931Z,11.97
2018-10-09T03:46:37.312Z,11.73
2018-10-09T03:49:06.911Z,13.50
2018-10-09T03:51:36.187Z,11.60
2018-10-09T03:54:05.722Z,13.17
2018-10-09T03:56:35.703Z,13.37
2018-10-09T03:59:05.164Z,13.40
2018-10-09T04:01:34.399Z,15.73
2018-10-09T04:04:03.599Z,15.70
2018-10-09T04:06:32.859Z,15.03
2018-10-09T04:09:02.186Z,14.70
2018-10-09T04:11:31.339Z,16.73
2018-10-09T04:14:00.568Z,14.80
2018-10-09T04:16:29.766Z,14.50
2018-10-09T04:18:59.045Z,17.70
2018-10-09T04:21:28.689Z,16.90
2018-10-09T04:23:57.887Z,18.00
2018-10-09T04:26:27.135Z,18.17
2018-10-09T04:28:56.396Z,16.70
2018-10-09T04:31:25.935Z,16.80
2018-10-09T04:33:55.143Z,17.37
2018-10-09T04:36:24.484Z,20.00
2018-10-09T04:38:53.683Z,17.90
2018-10-09T04:41:22.890Z,19.33
2018-10-09T04:43:52.657Z,20.93
2018-10-09T04:46:21.940Z,20.00
2018-10-09T04:48:51.153Z,19.57
2018-10-09T04:51:20.390Z,20.60
2018-10-09T04:53:49.601Z,19.90
2018-10-09T04:56:18.815Z,19.90
2018-10-09T04:58:48.529Z,21.00
2018-10-09T05:01:17.743Z,20.57
2018-10-09T05:03:47.067Z,20.73
2018-10-09T05:06:16.905Z,20.77
2018-10-09T05:08:46.269Z,20.60
2018-10-09T05:11:15.479Z,23.33
2018-10-09T05:13:44.688Z,22.13
2018-10-09T05:16:13.903Z,22.07
2018-10-09T05:18:43.221Z,22.40
2018-10-09T05:21:12.427Z,23.00
2018-10-09T05:23:41.636Z,21.33
2018-10-09T05:26:10.888Z,17.70
2018-10-09T05:28:40.644Z,18.73
2018-10-09T05:31:09.988Z,18.77
2018-10-09T05:33:39.192Z,17.60
2018-10-09T05:36:08.444Z,18.70
2018-10-09T05:38:37.663Z,19.50
2018-10-09T05:41:07.411Z,20.90
2018-10-09T05:43:36.847Z,19.50
2018-10-09T05:46:06.395Z,21.07
2018-10-09T05:48:35.655Z,20.30
2018-10-09T05:51:05.247Z,18.30
2018-10-09T05:53:34.731Z,21.07
2018-10-09T05:56:04.027Z,19.40
2018-10-09T05:58:33.293Z,20.00
2018-10-09T06:01:02.823Z,18.57
2018-10-09T06:03:32.356Z,20.20
2018-10-09T06:06:01.681Z,21.60
2018-10-09T06:08:30.856Z,21.67
2018-10-09T06:11:00.088Z,22.70
2018-10-09T06:13:29.692Z,22.80
2018-10-09T06:15:59.021Z,22.30
2018-10-09T06:18:28.227Z,20.67
2018-10-09T06:20:57.451Z,18.10
2018-10-09T06:23:26.685Z,21.83
2018-10-09T06:25:55.951Z,22.03
2018-10-09T06:28:25.209Z,21.93
2018-10-09T06:30:54.759Z,20.43
2018-10-09T06:33:24.040Z,22.60
2018-10-09T06:35:53.704Z,22.60
2018-10-09T06:38:23.016Z,21.53
2018-10-09T06:40:52.239Z,19.93
2018-10-09T06:43:21.475Z,21.67
2018-10-09T06:45:50.703Z,20.13
2018-10-09T06:48:19.972Z,21.43
2018-10-09T06:50:49.216Z,21.67
2018-10-09T06:53:18.498Z,21.10
2018-10-09T06:55:47.810Z,20.30
2018-10-09T06:58:17.306Z,21.60
2018-10-09T07:00:46.655Z,22.90
2018-10-09T07:03:16.162Z,20.90
2018-10-09T07:05:45.501Z,20.90
2018-10-09T07:08:14.731Z,20.93
2018-10-09T07:10:43.952Z,22.33
2018-10-09T07:13:13.187Z,23.40
2018-10-09T07:15:42.417Z,22.87
2018-10-09T07:18:11.764Z,23.50
2018-10-09T07:20:41.324Z,21.90
2018-10-09T07:23:10.529Z,23.40
2018-10-09T07:25:39.895Z,23.73
2018-10-09T07:28:09.301Z,21.80
2018-10-09T07:30:38.638Z,23.33
2018-10-09T07:33:07.827Z,21.97
2018-10-09T07:35:37.061Z,22.43
2018-10-09T07:38:06.295Z,23.40
2018-10-09T07:40:35.685Z,25.37
2018-10-09T07:43:05.333Z,23.57
2018-10-09T07:45:34.559Z,26.13
2018-10-09T07:48:03.789Z,24.57
2018-10-09T07:50:33.055Z,24.50
2018-10-09T07:53:02.613Z,26.83
2018-10-09T07:55:31.944Z,24.97
2018-10-09T07:58:01.166Z,28.40
2018-10-09T08:00:30.427Z,28.33
2018-10-09T08:02:59.623Z,27.73
2018-10-09T08:05:29.955Z,30.40
2018-10-09T08:07:59.166Z,30.23
2018-10-09T08:10:28.372Z,29.30
2018-10-09T08:12:57.607Z,29.73
2018-10-09T08:15:26.787Z,32.33
2018-10-09T08:17:56.003Z,32.47
2018-10-09T08:20:25.303Z,30.53
2018-10-09T08:22:54.572Z,29.90
2018-10-09T08:25:23.708Z,29.80
2018-10-09T08:27:53.378Z,30.50
2018-10-09T08:30:22.788Z,30.47
2018-10-09T08:32:51.983Z,31.60
2018-10-09T08:35:21.266Z,32.67
2018-10-09T08:37:50.835Z,32.27
2018-10-09T08:40:20.098Z,32.73
2018-10-09T08:42:49.771Z,28.70
2018-10-09T08:45:19.000Z,26.40
2018-10-09T08:47:48.206Z,26.70
2018-10-09T08:50:18.599Z,29.07
2018-10-09T08:52:48.016Z,27.67
2018-10-09T08:55:17.267Z,27.20
2018-10-09T08:57:46.500Z,26.97
2018-10-09T09:00:15.729Z,28.57
2018-10-09T09:02:44.927Z,28.57
2018-10-09T09:05:14.198Z,31.47
2018-10-09T09:07:43.805Z,30.17
2018-10-09T09:10:13.041Z,34.40
2018-10-09T09:12:42.611Z,32.50
2018-10-09T09:15:11.840Z,34.20
2018-10-09T09:17:41.043Z,34.50
2018-10-09T09:20:10.306Z,32.23
2018-10-09T09:22:39.595Z,33.90
2018-10-09T09:25:08.928Z,31.10
2018-10-09T09:27:38.302Z,32.57
2018-10-09T09:30:08.218Z,38.63
2018-10-09T09:32:37.467Z,34.20
2018-10-09T09:35:06.939Z,32.40
2018-10-09T09:37:36.184Z,32.40
2018-10-09T09:40:05.443Z,33.27
2018-10-09T09:42:34.751Z,32.10
2018-10-09T09:45:04.073Z,31.30
2018-10-09T09:47:33.252Z,33.03
2018-10-09T09:50:02.539Z,31.87
2018-10-09T09:52:31.808Z,31.60
2018-10-09T09:55:01.007Z,33.00
2018-10-09T09:57:30.947Z,32.47
2018-10-09T10:00:00.176Z,33.90
2018-10-09T10:02:29.410Z,31.67
2018-10-09T10:04:58.636Z,33.07
2018-10-09T10:07:27.862Z,32.07
2018-10-09T10:09:57.569Z,31.40
2018-10-09T10:12:26.811Z,30.40
2018-10-09T10:14:56.037Z,30.83
2018-10-09T10:17:25.241Z,31.40
2018-10-09T10:19:54.959Z,33.97
2018-10-09T10:22:24.224Z,34.03
2018-10-09T10:24:53.447Z,34.23
2018-10-09T10:27:22.679Z,34.00
2018-10-09T10:29:52.155Z,31.93
2018-10-09T10:32:21.550Z,30.73
2018-10-09T10:34:50.859Z,33.27
2018-10-09T10:37:20.121Z,32.20
2018-10-09T10:39:49.311Z,31.87
2018-10-09T10:42:18.993Z,32.37
2018-10-09T10:44:48.239Z,31.07
2018-10-09T10:47:17.467Z,31.50
2018-10-09T10:49:46.698Z,31.13
2018-10-09T10:52:15.911Z,32.03
2018-10-09T10:54:45.141Z,31.50
2018-10-09T10:57:14.379Z,28.93
2018-10-09T10:59:43.607Z,29.90
2018-10-09T11:02:12.824Z,30.33
2018-10-09T11:04:42.380Z,30.53
2018-10-09T11:07:11.791Z,30.10
2018-10-09T11:09:41.088Z,32.03
2018-10-09T11:12:10.742Z,33.90
2018-10-09T11:14:40.263Z,29.67
2018-10-09T11:17:09.453Z,31.33
2018-10-09T11:19:38.899Z,33.87
2018-10-09T11:22:08.183Z,32.83
2018-10-09T11:24:37.379Z,29.77
2018-10-09T11:27:07.552Z,33.13
2018-10-09T11:29:40.596Z,31.93
2018-10-09T11:32:11.319Z,30.93
2018-10-09T11:34:40.560Z,29.60
2018-10-09T11:37:10.172Z,31.27
2018-10-09T11:39:39.449Z,28.63
2018-10-09T11:42:08.683Z,28.60
2018-10-09T11:44:38.073Z,28.17
2018-10-09T11:47:07.555Z,30.03
2018-10-09T11:49:36.837Z,29.73
2018-10-09T11:52:06.097Z,28.33
2018-10-09T11:54:35.442Z,25.70
2018-10-09T11:57:04.643Z,25.93
2018-10-09T11:59:33.879Z,26.40
2018-10-09T12:02:03.159Z,26.47
2018-10-09T12:04:32.446Z,25.83
2018-10-09T12:07:01.695Z,24.33
2018-10-09T12:09:31.164Z,22.40
2018-10-09T12:12:00.391Z,25.23
2018-10-09T12:14:29.932Z,24.13
2018-10-09T12:16:59.194Z,27.73
2018-10-09T12:19:28.459Z,25.17
2018-10-09T12:21:57.691Z,22.30
2018-10-09T12:24:26.935Z,21.30
2018-10-09T12:26:56.157Z,22.40
2018-10-09T12:29:25.391Z,21.33
2018-10-09T12:31:54.681Z,17.60
2018-10-09T12:34:23.926Z,19.20
2018-10-09T12:36:53.211Z,19.50
2018-10-09T12:39:22.415Z,19.90
2018-10-09T12:41:51.955Z,21.73
2018-10-09T12:44:21.225Z,18.90
2018-10-09T12:46:50.409Z,19.17
2018-10-09T12:49:19.659Z,18.47
2018-10-09T12:51:48.875Z,18.87
2018-10-09T12:54:18.394Z,17.87
2018-10-09T12:56:47.611Z,17.23
2018-10-09T12:59:16.803Z,16.87
2018-10-09T13:01:46.040Z,16.60
2018-10-09T13:04:15.270Z,15.63
2018-10-09T13:06:44.663Z,16.70
2018-10-09T13:09:14.591Z,17.83
2018-10-09T13:11:45.118Z,15.77
2018-10-09T13:14:14.341Z,16.70
2018-10-09T13:16:44.235Z,15.87
2018-10-09T13:19:13.451Z,17.10
2018-10-09T13:21:42.970Z,16.30
2018-10-09T13:24:12.136Z,15.30
2018-10-09T13:26:41.376Z,16.80
2018-10-09T13:29:10.555Z,16.83
2018-10-09T13:31:39.807Z,15.87
2018-10-09T13:34:09.187Z,16.57
2018-10-09T13:36:38.263Z,17.13
2018-10-09T13:39:08.564Z,17.37
2018-10-09T13:41:37.851Z,17.57
2018-10-09T13:44:07.658Z,16.57
2018-10-09T13:46:38.213Z,17.40
2018-10-09T13:49:08.876Z,16.43
2018-10-09T13:51:38.139Z,15.70
2018-10-09T13:54:07.440Z,15.90
2018-10-09T13:56:36.777Z,14.07
2018-10-09T13:59:06.452Z,14.30
2018-10-09T14:01:35.975Z,15.77
2018-10-09T14:04:05.190Z,14.13
2018-10-09T14:06:34.420Z,13.60
2018-10-09T14:09:04.656Z,13.17
2018-10-09T14:11:34.160Z,13.70
2018-10-09T14:14:03.560Z,13.60
2018-10-09T14:16:32.809Z,12.90
2018-10-09T14:19:02.380Z,13.10
2018-10-09T14:21:31.606Z,12.90
2018-10-09T14:24:01.079Z,13.23
2018-10-09T14:26:30.384Z,13.20
2018-10-09T14:28:59.687Z,14.03
2018-10-09T14:31:28.919Z,13.60
2018-10-09T14:33:58.421Z,14.57
2018-10-09T14:36:27.775Z,12.90
2018-10-09T14:38:56.999Z,12.90
2018-10-09T14:41:26.396Z,12.73
2018-10-09T14:43:55.668Z,11.07
2018-10-09T14:46:25.199Z,12.50
2018-10-09T14:48:54.415Z,11.57
2018-10-09T14:51:23.621Z,15.83
2018-10-09T14:53:52.873Z,13.03
2018-10-09T14:56:22.144Z,11.00
2018-10-09T14:58:51.319Z,12.33
2018-10-09T15:01:20.625Z,11.43
2018-10-09T15:03:49.904Z,11.57
2018-10-09T15:06:19.124Z,11.43
2018-10-09T15:08:48.950Z,11.27
2018-10-09T15:11:18.139Z,11.47
2018-10-09T15:13:47.630Z,10.60
2018-10-09T15:16:16.911Z,11.33
2018-10-09T15:18:46.119Z,11.67
2018-10-09T15:21:15.830Z,11.70
2018-10-09T15:23:45.147Z,12.53
2018-10-09T15:26:14.452Z,11.37
2018-10-09T15:28:43.655Z,11.53
2018-10-09T15:31:13.239Z,10.67
2018-10-09T15:33:42.456Z,11.60
2018-10-09T15:36:11.691Z,10.03
2018-10-09T15:38:42.080Z,11.60
2018-10-09T15:41:11.547Z,11.47
2018-10-09T15:43:40.700Z,10.73
2018-10-09T15:46:10.027Z,12.27
2018-10-09T15:48:39.219Z,11.00
2018-10-09T15:51:08.519Z,11.77
2018-10-09T15:53:37.963Z,10.83
2018-10-09T15:56:07.216Z,11.40
2018-10-09T15:58:36.431Z,10.97
2018-10-09T16:01:05.931Z,10.80
2018-10-09T16:03:35.165Z,10.27
2018-10-09T16:06:04.380Z,11.13
2018-10-09T16:08:33.620Z,11.00
2018-10-09T16:11:02.819Z,11.53
2018-10-09T16:13:32.029Z,11.23
2018-10-09T16:16:01.576Z,10.40
2018-10-09T16:18:31.589Z,10.70
2018-10-09T16:21:02.090Z,11.90
2018-10-09T16:23:31.823Z,11.37
2018-10-09T16:26:01.117Z,12.20
2018-10-09T16:28:30.672Z,12.77
2018-10-09T16:31:00.141Z,11.40
2018-10-09T16:33:29.332Z,10.87
2018-10-09T16:35:58.904Z,10.90
2018-10-09T16:38:28.438Z,11.47
2018-10-09T16:40:57.779Z,12.83
2018-10-09T16:43:31.444Z,12.43
2018-10-09T16:46:00.924Z,13.60
2018-10-09T16:48:30.135Z,13.20
2018-10-09T16:50:59.592Z,12.60
2018-10-09T16:53:29.774Z,13.13
2018-10-09T16:56:03.316Z,13.60
2018-10-09T16:58:33.188Z,13.70
2018-10-09T17:01:02.609Z,14.80
2018-10-09T17:03:31.953Z,13.67
2018-10-09T17:06:02.458Z,13.60
2018-10-09T17:08:31.887Z,15.00
2018-10-09T17:11:01.228Z,14.87
2018-10-09T17:13:30.424Z,15.03
2018-10-09T17:16:00.076Z,18.10
2018-10-09T17:18:29.381Z,15.73
2018-10-09T17:20:58.620Z,14.27
2018-10-09T17:23:29.108Z,15.80
2018-10-09T17:25:58.371Z,16.00
2018-10-09T17:28:27.694Z,16.43
2018-10-09T17:30:56.959Z,29.07
2018-10-09T17:33:27.557Z,15.60
2018-10-09T17:35:56.734Z,14.97
2018-10-09T17:38:26.104Z,14.80
2018-10-09T17:40:55.516Z,15.23
2018-10-09T17:43:25.076Z,16.73
2018-10-09T17:45:54.666Z,16.70
2018-10-09T17:48:23.961Z,14.47
2018-10-09T17:50:54.443Z,15.07
2018-10-09T17:53:24.980Z,14.93
2018-10-09T17:55:54.179Z,16.73
2018-10-09T17:58:23.593Z,14.43
2018-10-09T18:00:52.905Z,14.00
2018-10-09T18:03:22.252Z,15.23
2018-10-09T18:05:51.485Z,16.60
2018-10-09T18:08:20.783Z,15.33
2018-10-09T18:10:51.332Z,16.07
2018-10-09T18:13:20.723Z,17.40
2018-10-09T18:15:50.169Z,15.27
2018-10-09T18:18:19.532Z,17.60
2018-10-09T18:20:48.743Z,16.67
2018-10-09T18:23:18.657Z,16.60
2018-10-09T18:25:48.047Z,18.77
2018-10-09T18:28:18.523Z,16.67
2018-10-09T18:30:47.775Z,15.97
2018-10-09T18:33:17.335Z,16.30
2018-10-09T18:35:46.395Z,15.97
2018-10-09T18:38:15.623Z,17.47
2018-10-09T18:40:44.995Z,16.03
2018-10-09T18:43:14.579Z,15.57
2018-10-09T18:45:44.417Z,16.77
2018-10-09T18:48:13.868Z,16.20
2018-10-09T18:50:45.351Z,15.77
2018-10-09T18:53:14.887Z,16.23
2018-10-09T18:55:46.447Z,15.43
2018-10-09T18:58:15.674Z,14.90
2018-10-09T19:00:44.934Z,16.20
2018-10-09T19:03:16.563Z,16.47
2018-10-09T19:05:46.112Z,15.33
2018-10-09T19:08:15.330Z,17.13
2018-10-09T19:10:46.863Z,16.10
2018-10-09T19:13:24.650Z,16.17
2018-10-09T19:15:54.028Z,17.43
2018-10-09T19:18:23.339Z,16.40
2018-10-09T19:20:52.605Z,16.03
2018-10-09T19:23:22.165Z,16.10
2018-10-09T19:25:52.168Z,16.43
2018-10-09T19:28:21.423Z,16.50
2018-10-09T19:30:50.659Z,15.50
2018-10-09T19:33:20.038Z,15.27
2018-10-09T19:35:49.359Z,16.10
2018-10-09T19:38:18.608Z,15.90
2018-10-09T19:40:47.843Z,14.27
2018-10-09T19:43:17.141Z,15.23
2018-10-09T19:45:46.776Z,15.60
2018-10-09T19:48:16.011Z,16.20
2018-10-09T19:50:45.273Z,15.53
2018-10-09T19:53:14.466Z,15.87
2018-10-09T19:55:43.713Z,15.80
2018-10-09T19:58:12.931Z,15.37
2018-10-09T20:00:42.198Z,14.80
2018-10-09T20:03:11.407Z,16.83
2018-10-09T20:05:40.852Z,15.77
2018-10-09T20:08:10.513Z,17.37
2018-10-09T20:10:39.870Z,15.40
2018-10-09T20:13:09.108Z,16.17
2018-10-09T20:15:38.551Z,16.43
2018-10-09T20:18:08.185Z,15.30
2018-10-09T20:20:37.404Z,16.03
2018-10-09T20:23:06.715Z,17.73
2018-10-09T20:25:35.967Z,17.47
2018-10-09T20:28:05.811Z,16.70
2018-10-09T20:30:35.310Z,16.57
2018-10-09T20:33:04.860Z,16.90
2018-10-09T20:35:34.156Z,15.50
2018-10-09T20:38:03.383Z,15.27
2018-10-09T20:40:32.588Z,15.87
2018-10-09T20:43:02.016Z,15.67
2018-10-09T20:45:31.604Z,16.90
2018-10-09T20:48:00.857Z,17.57
2018-10-09T20:50:30.071Z,16.50
2018-10-09T20:53:00.020Z,16.50
2018-10-09T20:55:29.207Z,17.43
2018-10-09T20:57:58.643Z,17.70
2018-10-09T21:00:27.898Z,16.93
2018-10-09T21:02:57.111Z,17.27
2018-10-09T21:05:26.324Z,18.20
2018-10-09T21:07:55.763Z,17.57
2018-10-09T21:10:25.032Z,18.40
2018-10-09T21:12:54.255Z,17.80
2018-10-09T21:15:23.771Z,19.37
2018-10-09T21:17:53.073Z,17.90
2018-10-09T21:20:22.227Z,17.77
2018-10-09T21:22:52.106Z,18.43
2018-10-09T21:25:21.292Z,16.40
2018-10-09T21:27:50.704Z,18.13
2018-10-09T21:30:20.367Z,16.27
2018-10-09T21:32:49.647Z,16.97
2018-10-09T21:35:18.880Z,17.57
2018-10-09T21:37:48.187Z,17.57
2018-10-09T21:40:17.396Z,17.63
2018-10-09T21:42:46.591Z,18.50
2018-10-09T21:45:15.845Z,16.80
2018-10-09T21:47:50.573Z,17.60
2018-10-09T21:50:19.803Z,17.97
2018-10-09T21:52:49.068Z,17.63
2018-10-09T21:55:18.323Z,18.73
2018-10-09T21:57:47.795Z,17.20
2018-10-09T22:00:16.971Z,17.00
2018-10-09T22:02:46.177Z,17.80
2018-10-09T22:05:15.476Z,17.20
2018-10-09T22:07:44.984Z,18.23
2018-10-09T22:10:14.228Z,19.20
2018-10-09T22:12:43.512Z,18.23
2018-10-09T22:15:12.727Z,19.20
2018-10-09T22:17:41.972Z,17.70
2018-10-09T22:20:11.431Z,16.67
2018-10-09T22:22:40.647Z,18.37
2018-10-09T22:25:09.860Z,17.80
2018-10-09T22:27:39.116Z,17.30
2018-10-09T22:30:08.360Z,17.77
2018-10-09T22:32:37.959Z,18.83
2018-10-09T22:35:07.196Z,18.40
2018-10-09T22:37:36.447Z,18.30
2018-10-09T22:40:05.713Z,17.30
2018-10-09T22:42:35.131Z,16.70
2018-10-09T22:45:04.384Z,17.10
2018-10-09T22:47:33.592Z,17.57
2018-10-09T22:50:02.823Z,17.80
2018-10-09T22:52:32.043Z,17.67
2018-10-09T22:55:01.312Z,18.50
2018-10-09T22:57:30.532Z,19.90
2018-10-09T22:59:59.773Z,17.63
2018-10-09T23:02:28.991Z,17.97
2018-10-09T23:04:58.531Z,18.47
2018-10-09T23:07:27.907Z,17.03
2018-10-09T23:09:57.205Z,17.47
2018-10-09T23:12:26.439Z,17.90
2018-10-09T23:14:55.641Z,18.93
2018-10-09T23:17:24.850Z,18.20
2018-10-09T23:19:54.100Z,20.63
2018-10-09T23:22:23.286Z,18.60
2018-10-09T23:24:52.514Z,19.37
2018-10-09T23:27:22.259Z,17.70
2018-10-09T23:29:51.471Z,17.33
2018-10-09T23:32:20.732Z,17.50
2018-10-09T23:34:50.277Z,18.77
2018-10-09T23:37:19.646Z,19.27
2018-10-09T23:39:48.909Z,18.07
2018-10-09T23:42:18.201Z,18.53
2018-10-09T23:44:47.440Z,18.70
2018-10-09T23:47:16.664Z,19.53
2018-10-09T23:49:46.275Z,18.90
2018-10-09T23:52:15.474Z,18.67
2018-10-09T23:54:44.751Z,17.67
2018-10-09T23:57:14.007Z,17.60
2018-10-09T23:59:43.220Z,18.80
